sensor_id;sensor_type;location;lat;lon;timestamp;P1;durP1;ratioP1;P2;durP2;ratioP2
49237;SDS011;35069;47.906;1.892;2022-08-19T00:01:20;6.97;;;4.82;;
49237;SDS011;35069;47.906;1.892;2022-08-19T00:03:45;5.65;;;5.25;;
49237;SDS011;35069;47.906;1.892;2022-08-19T00:06:11;5.40;;;4.93;;
49237;SDS011;35069;47.906;1.892;2022-08-19T00:08:38;5.25;;;4.75;;
49237;SDS011;35069;47.906;1.892;2022-08-19T00:11:04;7.20;;;4.88;;
49237;SDS011;35069;47.906;1.892;2022-08-19T00:13:29;4.88;;;4.50;;
49237;SDS011;35069;47.906;1.892;2022-08-19T00:15:55;11.02;;;5.95;;
49237;SDS011;35069;47.906;1.892;2022-08-19T00:18:21;6.40;;;5.07;;
49237;SDS011;35069;47.906;1.892;2022-08-19T00:20:47;4.90;;;4.50;;
49237;SDS011;35069;47.906;1.892;2022-08-19T00:23:13;6.30;;;5.68;;
49237;SDS011;35069;47.906;1.892;2022-08-19T00:25:39;7.72;;;5.43;;
49237;SDS011;35069;47.906;1.892;2022-08-19T00:28:05;5.93;;;5.35;;
49237;SDS011;35069;47.906;1.892;2022-08-19T00:30:31;5.38;;;4.97;;
49237;SDS011;35069;47.906;1.892;2022-08-19T00:32:57;7.03;;;4.95;;
49237;SDS011;35069;47.906;1.892;2022-08-19T00:35:23;5.55;;;5.05;;
49237;SDS011;35069;47.906;1.892;2022-08-19T00:37:49;8.52;;;5.65;;
49237;SDS011;35069;47.906;1.892;2022-08-19T00:40:15;5.68;;;5.03;;
49237;SDS011;35069;47.906;1.892;2022-08-19T00:42:44;7.10;;;5.70;;
49237;SDS011;35069;47.906;1.892;2022-08-19T00:45:13;6.03;;;5.38;;
49237;SDS011;35069;47.906;1.892;2022-08-19T00:47:42;6.55;;;5.03;;
49237;SDS011;35069;47.906;1.892;2022-08-19T00:50:08;9.43;;;4.90;;
49237;SDS011;35069;47.906;1.892;2022-08-19T00:52:38;6.18;;;5.68;;
49237;SDS011;35069;47.906;1.892;2022-08-19T00:55:10;5.95;;;5.43;;
49237;SDS011;35069;47.906;1.892;2022-08-19T00:57:46;5.45;;;4.95;;
49237;SDS011;35069;47.906;1.892;2022-08-19T01:00:16;9.83;;;5.40;;
49237;SDS011;35069;47.906;1.892;2022-08-19T01:02:44;8.85;;;6.35;;
49237;SDS011;35069;47.906;1.892;2022-08-19T01:05:11;6.40;;;5.50;;
49237;SDS011;35069;47.906;1.892;2022-08-19T01:07:46;6.45;;;5.85;;
49237;SDS011;35069;47.906;1.892;2022-08-19T01:10:17;6.40;;;5.93;;
49237;SDS011;35069;47.906;1.892;2022-08-19T01:12:46;9.63;;;5.60;;
49237;SDS011;35069;47.906;1.892;2022-08-19T01:15:14;8.48;;;6.22;;
49237;SDS011;35069;47.906;1.892;2022-08-19T01:17:43;7.15;;;5.95;;
49237;SDS011;35069;47.906;1.892;2022-08-19T01:20:14;6.32;;;4.97;;
49237;SDS011;35069;47.906;1.892;2022-08-19T01:22:49;8.93;;;4.97;;
49237;SDS011;35069;47.906;1.892;2022-08-19T01:25:20;6.72;;;6.13;;
49237;SDS011;35069;47.906;1.892;2022-08-19T01:27:49;5.50;;;4.97;;
49237;SDS011;35069;47.906;1.892;2022-08-19T01:30:17;6.15;;;5.55;;
49237;SDS011;35069;47.906;1.892;2022-08-19T01:32:47;8.45;;;5.60;;
49237;SDS011;35069;47.906;1.892;2022-08-19T01:35:13;6.07;;;5.43;;
49237;SDS011;35069;47.906;1.892;2022-08-19T01:37:49;6.60;;;6.00;;
49237;SDS011;35069;47.906;1.892;2022-08-19T01:40:17;7.55;;;6.88;;
49237;SDS011;35069;47.906;1.892;2022-08-19T01:42:47;5.68;;;5.18;;
49237;SDS011;35069;47.906;1.892;2022-08-19T01:45:14;8.32;;;5.50;;
49237;SDS011;35069;47.906;1.892;2022-08-19T01:47:40;6.30;;;5.10;;
49237;SDS011;35069;47.906;1.892;2022-08-19T01:50:06;6.60;;;5.60;;
49237;SDS011;35069;47.906;1.892;2022-08-19T01:52:40;6.75;;;6.03;;
49237;SDS011;35069;47.906;1.892;2022-08-19T01:55:08;5.93;;;5.35;;
49237;SDS011;35069;47.906;1.892;2022-08-19T01:57:37;5.45;;;4.85;;
49237;SDS011;35069;47.906;1.892;2022-08-19T02:00:05;9.25;;;6.65;;
49237;SDS011;35069;47.906;1.892;2022-08-19T02:02:33;6.10;;;5.55;;
49237;SDS011;35069;47.906;1.892;2022-08-19T02:04:59;6.47;;;5.07;;
49237;SDS011;35069;47.906;1.892;2022-08-19T02:07:25;6.82;;;5.53;;
49237;SDS011;35069;47.906;1.892;2022-08-19T02:09:50;5.88;;;5.35;;
49237;SDS011;35069;47.906;1.892;2022-08-19T02:12:16;6.40;;;5.72;;
49237;SDS011;35069;47.906;1.892;2022-08-19T02:14:42;7.22;;;5.22;;
49237;SDS011;35069;47.906;1.892;2022-08-19T02:17:07;6.75;;;6.05;;
49237;SDS011;35069;47.906;1.892;2022-08-19T02:19:34;8.27;;;6.10;;
49237;SDS011;35069;47.906;1.892;2022-08-19T02:22:00;7.88;;;5.93;;
49237;SDS011;35069;47.906;1.892;2022-08-19T02:24:26;6.85;;;6.03;;
49237;SDS011;35069;47.906;1.892;2022-08-19T02:26:52;7.15;;;6.45;;
49237;SDS011;35069;47.906;1.892;2022-08-19T02:29:18;10.82;;;7.55;;
49237;SDS011;35069;47.906;1.892;2022-08-19T02:31:44;10.35;;;6.07;;
49237;SDS011;35069;47.906;1.892;2022-08-19T02:34:10;7.95;;;6.07;;
49237;SDS011;35069;47.906;1.892;2022-08-19T02:36:36;6.22;;;5.65;;
49237;SDS011;35069;47.906;1.892;2022-08-19T02:39:01;9.32;;;6.35;;
49237;SDS011;35069;47.906;1.892;2022-08-19T02:41:29;6.97;;;6.13;;
49237;SDS011;35069;47.906;1.892;2022-08-19T02:43:56;7.80;;;5.72;;
49237;SDS011;35069;47.906;1.892;2022-08-19T02:46:27;6.18;;;5.68;;
49237;SDS011;35069;47.906;1.892;2022-08-19T02:48:55;7.20;;;6.47;;
49237;SDS011;35069;47.906;1.892;2022-08-19T02:51:24;6.90;;;6.30;;
49237;SDS011;35069;47.906;1.892;2022-08-19T02:53:52;7.30;;;5.78;;
49237;SDS011;35069;47.906;1.892;2022-08-19T02:56:18;7.13;;;6.45;;
49237;SDS011;35069;47.906;1.892;2022-08-19T02:58:44;7.43;;;6.43;;
49237;SDS011;35069;47.906;1.892;2022-08-19T03:01:10;7.05;;;6.45;;
49237;SDS011;35069;47.906;1.892;2022-08-19T03:03:44;7.05;;;5.85;;
49237;SDS011;35069;47.906;1.892;2022-08-19T03:06:14;6.65;;;5.93;;
49237;SDS011;35069;47.906;1.892;2022-08-19T03:08:41;7.05;;;6.35;;
49237;SDS011;35069;47.906;1.892;2022-08-19T03:11:13;7.15;;;5.03;;
49237;SDS011;35069;47.906;1.892;2022-08-19T03:13:40;6.97;;;6.28;;
49237;SDS011;35069;47.906;1.892;2022-08-19T03:16:08;6.80;;;5.90;;
49237;SDS011;35069;47.906;1.892;2022-08-19T03:18:35;6.78;;;5.97;;
49237;SDS011;35069;47.906;1.892;2022-08-19T03:21:00;7.20;;;6.53;;
49237;SDS011;35069;47.906;1.892;2022-08-19T03:23:26;7.80;;;7.15;;
49237;SDS011;35069;47.906;1.892;2022-08-19T03:25:52;7.35;;;5.35;;
49237;SDS011;35069;47.906;1.892;2022-08-19T03:28:18;8.23;;;6.18;;
49237;SDS011;35069;47.906;1.892;2022-08-19T03:30:55;8.65;;;7.00;;
49237;SDS011;35069;47.906;1.892;2022-08-19T03:36:06;8.00;;;5.68;;
49237;SDS011;35069;47.906;1.892;2022-08-19T03:38:36;6.88;;;5.70;;
49237;SDS011;35069;47.906;1.892;2022-08-19T03:41:06;6.63;;;6.03;;
49237;SDS011;35069;47.906;1.892;2022-08-19T03:43:37;8.37;;;6.83;;
49237;SDS011;35069;47.906;1.892;2022-08-19T03:46:05;6.93;;;6.22;;
49237;SDS011;35069;47.906;1.892;2022-08-19T03:48:36;6.40;;;5.80;;
49237;SDS011;35069;47.906;1.892;2022-08-19T03:51:04;6.15;;;5.55;;
49237;SDS011;35069;47.906;1.892;2022-08-19T03:53:30;7.93;;;5.80;;
49237;SDS011;35069;47.906;1.892;2022-08-19T03:55:58;6.65;;;5.75;;
49237;SDS011;35069;47.906;1.892;2022-08-19T03:58:30;6.78;;;6.13;;
49237;SDS011;35069;47.906;1.892;2022-08-19T04:00:56;7.65;;;6.25;;
49237;SDS011;35069;47.906;1.892;2022-08-19T04:03:22;7.38;;;6.63;;
49237;SDS011;35069;47.906;1.892;2022-08-19T04:05:49;7.72;;;5.93;;
49237;SDS011;35069;47.906;1.892;2022-08-19T04:08:15;7.10;;;5.97;;
49237;SDS011;35069;47.906;1.892;2022-08-19T04:10:43;6.80;;;5.85;;
49237;SDS011;35069;47.906;1.892;2022-08-19T04:13:09;7.65;;;6.82;;
49237;SDS011;35069;47.906;1.892;2022-08-19T04:15:38;9.27;;;6.18;;
49237;SDS011;35069;47.906;1.892;2022-08-19T04:18:06;7.93;;;7.13;;
49237;SDS011;35069;47.906;1.892;2022-08-19T04:20:43;7.45;;;6.28;;
49237;SDS011;35069;47.906;1.892;2022-08-19T04:23:10;9.30;;;6.88;;
49237;SDS011;35069;47.906;1.892;2022-08-19T04:25:38;7.80;;;6.47;;
49237;SDS011;35069;47.906;1.892;2022-08-19T04:28:08;8.63;;;6.25;;
49237;SDS011;35069;47.906;1.892;2022-08-19T04:30:43;7.03;;;6.35;;
49237;SDS011;35069;47.906;1.892;2022-08-19T04:33:12;9.15;;;7.65;;
49237;SDS011;35069;47.906;1.892;2022-08-19T04:35:41;11.02;;;8.38;;
49237;SDS011;35069;47.906;1.892;2022-08-19T04:38:09;7.35;;;6.60;;
49237;SDS011;35069;47.906;1.892;2022-08-19T04:40:48;12.93;;;7.35;;
49237;SDS011;35069;47.906;1.892;2022-08-19T04:43:34;8.13;;;6.28;;
49237;SDS011;35069;47.906;1.892;2022-08-19T04:46:06;7.57;;;6.78;;
49237;SDS011;35069;47.906;1.892;2022-08-19T04:48:33;8.82;;;7.78;;
49237;SDS011;35069;47.906;1.892;2022-08-19T04:50:59;9.35;;;6.80;;
49237;SDS011;35069;47.906;1.892;2022-08-19T04:53:30;8.90;;;8.07;;
49237;SDS011;35069;47.906;1.892;2022-08-19T04:55:57;13.60;;;6.88;;
49237;SDS011;35069;47.906;1.892;2022-08-19T04:58:25;10.02;;;6.90;;
49237;SDS011;35069;47.906;1.892;2022-08-19T05:00:52;11.38;;;7.45;;
49237;SDS011;35069;47.906;1.892;2022-08-19T05:03:18;10.82;;;7.05;;
49237;SDS011;35069;47.906;1.892;2022-08-19T05:05:45;7.38;;;6.65;;
49237;SDS011;35069;47.906;1.892;2022-08-19T05:08:13;6.80;;;5.82;;
49237;SDS011;35069;47.906;1.892;2022-08-19T05:10:44;6.80;;;6.07;;
49237;SDS011;35069;47.906;1.892;2022-08-19T05:13:15;6.90;;;5.95;;
49237;SDS011;35069;47.906;1.892;2022-08-19T05:15:43;10.82;;;5.72;;
49237;SDS011;35069;47.906;1.892;2022-08-19T05:18:09;6.22;;;5.28;;
49237;SDS011;35069;47.906;1.892;2022-08-19T05:20:53;7.88;;;5.22;;
49237;SDS011;35069;47.906;1.892;2022-08-19T05:23:38;6.97;;;6.43;;
49237;SDS011;35069;47.906;1.892;2022-08-19T05:26:04;5.97;;;5.40;;
49237;SDS011;35069;47.906;1.892;2022-08-19T05:28:30;10.80;;;4.90;;
49237;SDS011;35069;47.906;1.892;2022-08-19T05:30:55;8.35;;;5.47;;
49237;SDS011;35069;47.906;1.892;2022-08-19T05:33:22;8.85;;;5.55;;
49237;SDS011;35069;47.906;1.892;2022-08-19T05:35:49;6.05;;;5.55;;
49237;SDS011;35069;47.906;1.892;2022-08-19T05:38:17;7.18;;;4.95;;
49237;SDS011;35069;47.906;1.892;2022-08-19T05:40:44;6.20;;;4.82;;
49237;SDS011;35069;47.906;1.892;2022-08-19T05:43:12;8.73;;;5.20;;
49237;SDS011;35069;47.906;1.892;2022-08-19T05:45:40;8.93;;;5.07;;
49237;SDS011;35069;47.906;1.892;2022-08-19T05:48:07;5.20;;;4.70;;
49237;SDS011;35069;47.906;1.892;2022-08-19T05:50:36;9.48;;;5.75;;
49237;SDS011;35069;47.906;1.892;2022-08-19T05:53:03;6.93;;;5.88;;
49237;SDS011;35069;47.906;1.892;2022-08-19T05:55:29;8.35;;;5.25;;
49237;SDS011;35069;47.906;1.892;2022-08-19T05:57:55;8.20;;;4.45;;
49237;SDS011;35069;47.906;1.892;2022-08-19T06:00:21;5.95;;;4.80;;
49237;SDS011;35069;47.906;1.892;2022-08-19T06:02:48;5.90;;;5.05;;
49237;SDS011;35069;47.906;1.892;2022-08-19T06:05:13;6.30;;;5.05;;
49237;SDS011;35069;47.906;1.892;2022-08-19T06:07:39;5.97;;;4.93;;
49237;SDS011;35069;47.906;1.892;2022-08-19T06:10:07;11.38;;;5.70;;
49237;SDS011;35069;47.906;1.892;2022-08-19T06:12:34;12.60;;;5.00;;
49237;SDS011;35069;47.906;1.892;2022-08-19T06:15:05;6.05;;;4.70;;
49237;SDS011;35069;47.906;1.892;2022-08-19T06:17:35;7.13;;;4.90;;
49237;SDS011;35069;47.906;1.892;2022-08-19T06:20:02;5.88;;;4.57;;
49237;SDS011;35069;47.906;1.892;2022-08-19T06:22:29;4.35;;;3.92;;
49237;SDS011;35069;47.906;1.892;2022-08-19T06:24:55;7.32;;;4.18;;
49237;SDS011;35069;47.906;1.892;2022-08-19T06:27:21;3.85;;;3.38;;
49237;SDS011;35069;47.906;1.892;2022-08-19T06:29:47;7.40;;;3.90;;
49237;SDS011;35069;47.906;1.892;2022-08-19T06:32:15;4.43;;;3.00;;
49237;SDS011;35069;47.906;1.892;2022-08-19T06:34:41;6.72;;;3.50;;
49237;SDS011;35069;47.906;1.892;2022-08-19T06:37:07;4.50;;;3.28;;
49237;SDS011;35069;47.906;1.892;2022-08-19T06:39:37;6.13;;;3.35;;
49237;SDS011;35069;47.906;1.892;2022-08-19T06:42:04;3.30;;;3.00;;
49237;SDS011;35069;47.906;1.892;2022-08-19T06:44:33;4.93;;;3.33;;
49237;SDS011;35069;47.906;1.892;2022-08-19T06:47:01;5.95;;;3.03;;
49237;SDS011;35069;47.906;1.892;2022-08-19T06:49:32;5.13;;;3.07;;
49237;SDS011;35069;47.906;1.892;2022-08-19T06:51:59;5.22;;;2.95;;
49237;SDS011;35069;47.906;1.892;2022-08-19T06:54:25;3.90;;;3.22;;
49237;SDS011;35069;47.906;1.892;2022-08-19T06:56:51;4.38;;;2.60;;
49237;SDS011;35069;47.906;1.892;2022-08-19T06:59:18;2.60;;;2.40;;
49237;SDS011;35069;47.906;1.892;2022-08-19T07:01:48;4.15;;;2.65;;
49237;SDS011;35069;47.906;1.892;2022-08-19T07:04:18;2.63;;;2.50;;
49237;SDS011;35069;47.906;1.892;2022-08-19T07:06:49;9.40;;;3.80;;
49237;SDS011;35069;47.906;1.892;2022-08-19T07:09:21;4.28;;;2.78;;
49237;SDS011;35069;47.906;1.892;2022-08-19T07:11:47;2.42;;;2.10;;
49237;SDS011;35069;47.906;1.892;2022-08-19T07:14:18;2.60;;;2.40;;
49237;SDS011;35069;47.906;1.892;2022-08-19T07:16:47;2.90;;;2.70;;
49237;SDS011;35069;47.906;1.892;2022-08-19T07:19:15;4.43;;;2.40;;
49237;SDS011;35069;47.906;1.892;2022-08-19T07:21:41;5.43;;;2.45;;
49237;SDS011;35069;47.906;1.892;2022-08-19T07:24:07;5.78;;;2.25;;
49237;SDS011;35069;47.906;1.892;2022-08-19T07:26:35;4.68;;;2.10;;
49237;SDS011;35069;47.906;1.892;2022-08-19T07:29:04;6.03;;;2.92;;
49237;SDS011;35069;47.906;1.892;2022-08-19T07:31:31;3.38;;;2.85;;
49237;SDS011;35069;47.906;1.892;2022-08-19T07:34:02;6.15;;;2.85;;
49237;SDS011;35069;47.906;1.892;2022-08-19T07:36:32;2.55;;;2.00;;
49237;SDS011;35069;47.906;1.892;2022-08-19T07:39:00;5.80;;;3.22;;
49237;SDS011;35069;47.906;1.892;2022-08-19T07:41:29;3.20;;;2.25;;
49237;SDS011;35069;47.906;1.892;2022-08-19T07:43:57;2.72;;;2.53;;
49237;SDS011;35069;47.906;1.892;2022-08-19T07:46:29;2.95;;;2.28;;
49237;SDS011;35069;47.906;1.892;2022-08-19T07:49:00;2.28;;;1.95;;
49237;SDS011;35069;47.906;1.892;2022-08-19T07:51:27;2.50;;;2.30;;
49237;SDS011;35069;47.906;1.892;2022-08-19T07:53:53;4.13;;;2.53;;
49237;SDS011;35069;47.906;1.892;2022-08-19T07:56:19;3.10;;;2.80;;
49237;SDS011;35069;47.906;1.892;2022-08-19T07:58:46;5.15;;;2.83;;
49237;SDS011;35069;47.906;1.892;2022-08-19T08:01:18;10.85;;;2.85;;
49237;SDS011;35069;47.906;1.892;2022-08-19T08:03:45;4.57;;;2.45;;
49237;SDS011;35069;47.906;1.892;2022-08-19T08:06:34;3.85;;;2.95;;
49237;SDS011;35069;47.906;1.892;2022-08-19T08:09:22;4.97;;;3.05;;
49237;SDS011;35069;47.906;1.892;2022-08-19T08:11:55;2.83;;;2.65;;
49237;SDS011;35069;47.906;1.892;2022-08-19T08:14:25;4.20;;;2.55;;
49237;SDS011;35069;47.906;1.892;2022-08-19T08:16:53;5.13;;;2.72;;
49237;SDS011;35069;47.906;1.892;2022-08-19T08:19:19;3.75;;;2.28;;
49237;SDS011;35069;47.906;1.892;2022-08-19T08:21:48;4.80;;;2.83;;
49237;SDS011;35069;47.906;1.892;2022-08-19T08:24:14;5.22;;;2.25;;
49237;SDS011;35069;47.906;1.892;2022-08-19T08:26:41;3.65;;;2.30;;
49237;SDS011;35069;47.906;1.892;2022-08-19T08:29:08;3.45;;;2.65;;
49237;SDS011;35069;47.906;1.892;2022-08-19T08:31:36;3.75;;;2.30;;
49237;SDS011;35069;47.906;1.892;2022-08-19T08:34:02;3.10;;;1.80;;
49237;SDS011;35069;47.906;1.892;2022-08-19T08:36:28;3.65;;;2.17;;
49237;SDS011;35069;47.906;1.892;2022-08-19T08:38:54;2.15;;;1.60;;
49237;SDS011;35069;47.906;1.892;2022-08-19T08:41:22;4.80;;;1.88;;
49237;SDS011;35069;47.906;1.892;2022-08-19T08:43:59;3.08;;;2.10;;
49237;SDS011;35069;47.906;1.892;2022-08-19T08:46:39;3.60;;;2.55;;
49237;SDS011;35069;47.906;1.892;2022-08-19T08:52:02;4.70;;;2.00;;
49237;SDS011;35069;47.906;1.892;2022-08-19T08:54:42;1.65;;;1.52;;
49237;SDS011;35069;47.906;1.892;2022-08-19T08:57:11;5.75;;;1.88;;
49237;SDS011;35069;47.906;1.892;2022-08-19T08:59:57;2.00;;;1.83;;
49237;SDS011;35069;47.906;1.892;2022-08-19T09:02:29;1.60;;;1.50;;
49237;SDS011;35069;47.906;1.892;2022-08-19T09:04:54;2.03;;;1.80;;
49237;SDS011;35069;47.906;1.892;2022-08-19T09:10:49;2.13;;;1.90;;
49237;SDS011;35069;47.906;1.892;2022-08-19T09:15:53;2.70;;;2.10;;
49237;SDS011;35069;47.906;1.892;2022-08-19T09:18:38;4.30;;;1.98;;
49237;SDS011;35069;47.906;1.892;2022-08-19T09:21:11;3.95;;;2.25;;
49237;SDS011;35069;47.906;1.892;2022-08-19T09:23:36;3.28;;;2.30;;
49237;SDS011;35069;47.906;1.892;2022-08-19T09:26:06;3.22;;;2.47;;
49237;SDS011;35069;47.906;1.892;2022-08-19T09:28:33;3.92;;;2.20;;
49237;SDS011;35069;47.906;1.892;2022-08-19T09:30:59;2.20;;;2.00;;
49237;SDS011;35069;47.906;1.892;2022-08-19T09:33:25;6.15;;;2.22;;
49237;SDS011;35069;47.906;1.892;2022-08-19T09:36:01;2.55;;;2.25;;
49237;SDS011;35069;47.906;1.892;2022-08-19T09:38:28;2.40;;;2.08;;
49237;SDS011;35069;47.906;1.892;2022-08-19T09:40:54;6.35;;;2.72;;
49237;SDS011;35069;47.906;1.892;2022-08-19T09:43:19;7.05;;;2.35;;
49237;SDS011;35069;47.906;1.892;2022-08-19T09:45:45;5.93;;;2.60;;
49237;SDS011;35069;47.906;1.892;2022-08-19T09:48:10;2.20;;;2.10;;
49237;SDS011;35069;47.906;1.892;2022-08-19T09:50:36;4.28;;;2.35;;
49237;SDS011;35069;47.906;1.892;2022-08-19T09:53:03;5.95;;;2.55;;
49237;SDS011;35069;47.906;1.892;2022-08-19T09:55:30;3.25;;;2.05;;
49237;SDS011;35069;47.906;1.892;2022-08-19T09:57:56;3.50;;;2.70;;
49237;SDS011;35069;47.906;1.892;2022-08-19T10:00:21;2.70;;;2.17;;
49237;SDS011;35069;47.906;1.892;2022-08-19T10:02:47;3.03;;;1.80;;
49237;SDS011;35069;47.906;1.892;2022-08-19T10:05:12;1.73;;;1.63;;
49237;SDS011;35069;47.906;1.892;2022-08-19T10:07:56;2.45;;;2.08;;
49237;SDS011;35069;47.906;1.892;2022-08-19T10:10:22;2.17;;;2.08;;
49237;SDS011;35069;47.906;1.892;2022-08-19T10:12:48;2.22;;;1.95;;
49237;SDS011;35069;47.906;1.892;2022-08-19T10:15:14;3.53;;;2.50;;
49237;SDS011;35069;47.906;1.892;2022-08-19T10:17:40;4.22;;;2.00;;
49237;SDS011;35069;47.906;1.892;2022-08-19T10:20:06;2.22;;;2.03;;
49237;SDS011;35069;47.906;1.892;2022-08-19T10:22:32;2.45;;;2.05;;
49237;SDS011;35069;47.906;1.892;2022-08-19T10:25:00;2.30;;;2.10;;
49237;SDS011;35069;47.906;1.892;2022-08-19T10:27:26;4.03;;;2.40;;
49237;SDS011;35069;47.906;1.892;2022-08-19T10:29:51;2.13;;;2.00;;
49237;SDS011;35069;47.906;1.892;2022-08-19T10:32:17;6.18;;;2.78;;
49237;SDS011;35069;47.906;1.892;2022-08-19T10:34:43;3.40;;;2.33;;
49237;SDS011;35069;47.906;1.892;2022-08-19T10:37:08;1.65;;;1.52;;
49237;SDS011;35069;47.906;1.892;2022-08-19T10:39:35;3.35;;;1.55;;
49237;SDS011;35069;47.906;1.892;2022-08-19T10:42:07;1.52;;;1.17;;
49237;SDS011;35069;47.906;1.892;2022-08-19T10:44:35;1.38;;;1.30;;
49237;SDS011;35069;47.906;1.892;2022-08-19T10:47:01;2.25;;;1.40;;
49237;SDS011;35069;47.906;1.892;2022-08-19T10:49:28;1.17;;;1.17;;
49237;SDS011;35069;47.906;1.892;2022-08-19T10:51:55;2.33;;;1.20;;
49237;SDS011;35069;47.906;1.892;2022-08-19T10:54:40;1.63;;;1.40;;
49237;SDS011;35069;47.906;1.892;2022-08-19T10:57:24;1.90;;;1.20;;
49237;SDS011;35069;47.906;1.892;2022-08-19T10:59:54;1.50;;;1.50;;
49237;SDS011;35069;47.906;1.892;2022-08-19T11:02:20;2.42;;;1.90;;
49237;SDS011;35069;47.906;1.892;2022-08-19T11:04:46;1.17;;;1.08;;
49237;SDS011;35069;47.906;1.892;2022-08-19T11:07:14;2.05;;;1.42;;
49237;SDS011;35069;47.906;1.892;2022-08-19T11:09:41;1.42;;;1.10;;
49237;SDS011;35069;47.906;1.892;2022-08-19T11:12:07;1.45;;;0.70;;
49237;SDS011;35069;47.906;1.892;2022-08-19T11:14:35;1.10;;;1.10;;
49237;SDS011;35069;47.906;1.892;2022-08-19T11:17:01;2.47;;;0.98;;
49237;SDS011;35069;47.906;1.892;2022-08-19T11:19:28;2.50;;;1.20;;
49237;SDS011;35069;47.906;1.892;2022-08-19T11:21:54;1.85;;;0.85;;
49237;SDS011;35069;47.906;1.892;2022-08-19T11:24:20;3.13;;;1.85;;
49237;SDS011;35069;47.906;1.892;2022-08-19T11:26:49;1.17;;;1.00;;
49237;SDS011;35069;47.906;1.892;2022-08-19T11:29:17;1.05;;;1.00;;
49237;SDS011;35069;47.906;1.892;2022-08-19T11:31:45;1.30;;;1.20;;
49237;SDS011;35069;47.906;1.892;2022-08-19T11:34:15;1.55;;;1.00;;
49237;SDS011;35069;47.906;1.892;2022-08-19T11:36:45;1.20;;;1.10;;
49237;SDS011;35069;47.906;1.892;2022-08-19T11:39:13;1.08;;;0.93;;
49237;SDS011;35069;47.906;1.892;2022-08-19T11:41:40;0.95;;;0.80;;
49237;SDS011;35069;47.906;1.892;2022-08-19T11:44:06;1.85;;;0.90;;
49237;SDS011;35069;47.906;1.892;2022-08-19T11:46:33;0.90;;;0.90;;
49237;SDS011;35069;47.906;1.892;2022-08-19T11:49:00;2.35;;;1.23;;
49237;SDS011;35069;47.906;1.892;2022-08-19T11:51:28;0.60;;;0.60;;
49237;SDS011;35069;47.906;1.892;2022-08-19T11:53:55;0.60;;;0.60;;
49237;SDS011;35069;47.906;1.892;2022-08-19T11:56:23;2.40;;;0.73;;
49237;SDS011;35069;47.906;1.892;2022-08-19T11:58:49;1.08;;;0.70;;
49237;SDS011;35069;47.906;1.892;2022-08-19T12:01:16;0.82;;;0.82;;
49237;SDS011;35069;47.906;1.892;2022-08-19T12:03:43;1.17;;;0.80;;
49237;SDS011;35069;47.906;1.892;2022-08-19T12:06:11;0.40;;;0.40;;
49237;SDS011;35069;47.906;1.892;2022-08-19T12:08:40;2.20;;;0.70;;
49237;SDS011;35069;47.906;1.892;2022-08-19T12:11:08;12.85;;;1.02;;
49237;SDS011;35069;47.906;1.892;2022-08-19T12:13:34;0.60;;;0.60;;
49237;SDS011;35069;47.906;1.892;2022-08-19T12:16:06;0.45;;;0.45;;
49237;SDS011;35069;47.906;1.892;2022-08-19T12:18:37;1.17;;;0.50;;
49237;SDS011;35069;47.906;1.892;2022-08-19T12:21:03;0.50;;;0.50;;
49237;SDS011;35069;47.906;1.892;2022-08-19T12:23:29;1.65;;;0.35;;
49237;SDS011;35069;47.906;1.892;2022-08-19T12:25:55;1.88;;;0.80;;
49237;SDS011;35069;47.906;1.892;2022-08-19T12:28:22;3.30;;;0.77;;
49237;SDS011;35069;47.906;1.892;2022-08-19T12:30:49;0.60;;;0.60;;
49237;SDS011;35069;47.906;1.892;2022-08-19T12:33:16;0.50;;;0.50;;
49237;SDS011;35069;47.906;1.892;2022-08-19T12:35:42;0.90;;;0.63;;
49237;SDS011;35069;47.906;1.892;2022-08-19T12:38:10;1.67;;;0.50;;
49237;SDS011;35069;47.906;1.892;2022-08-19T12:40:36;0.50;;;0.30;;
49237;SDS011;35069;47.906;1.892;2022-08-19T12:43:03;2.47;;;0.65;;
49237;SDS011;35069;47.906;1.892;2022-08-19T12:45:29;1.13;;;0.50;;
49237;SDS011;35069;47.906;1.892;2022-08-19T12:47:55;0.52;;;0.47;;
49237;SDS011;35069;47.906;1.892;2022-08-19T12:50:20;0.75;;;0.75;;
49237;SDS011;35069;47.906;1.892;2022-08-19T12:52:46;2.60;;;0.70;;
49237;SDS011;35069;47.906;1.892;2022-08-19T12:55:12;0.50;;;0.50;;
49237;SDS011;35069;47.906;1.892;2022-08-19T12:57:40;0.75;;;0.70;;
49237;SDS011;35069;47.906;1.892;2022-08-19T13:00:07;1.40;;;0.77;;
49237;SDS011;35069;47.906;1.892;2022-08-19T13:02:37;1.10;;;1.00;;
49237;SDS011;35069;47.906;1.892;2022-08-19T13:05:04;0.50;;;0.50;;
49237;SDS011;35069;47.906;1.892;2022-08-19T13:07:33;0.80;;;0.65;;
49237;SDS011;35069;47.906;1.892;2022-08-19T13:09:59;2.20;;;0.40;;
49237;SDS011;35069;47.906;1.892;2022-08-19T13:12:25;0.77;;;0.50;;
49237;SDS011;35069;47.906;1.892;2022-08-19T13:14:52;2.22;;;0.50;;
49237;SDS011;35069;47.906;1.892;2022-08-19T13:17:18;1.40;;;0.30;;
49237;SDS011;35069;47.906;1.892;2022-08-19T13:19:44;0.40;;;0.40;;
49237;SDS011;35069;47.906;1.892;2022-08-19T13:22:10;0.30;;;0.30;;
49237;SDS011;35069;47.906;1.892;2022-08-19T13:24:37;3.13;;;0.65;;
49237;SDS011;35069;47.906;1.892;2022-08-19T13:27:03;0.85;;;0.47;;
49237;SDS011;35069;47.906;1.892;2022-08-19T13:29:29;1.67;;;0.77;;
49237;SDS011;35069;47.906;1.892;2022-08-19T13:32:13;1.70;;;0.60;;
49237;SDS011;35069;47.906;1.892;2022-08-19T13:34:57;0.52;;;0.40;;
49237;SDS011;35069;47.906;1.892;2022-08-19T13:37:23;3.42;;;0.35;;
49237;SDS011;35069;47.906;1.892;2022-08-19T13:40:06;0.40;;;0.40;;
49237;SDS011;35069;47.906;1.892;2022-08-19T13:42:36;0.28;;;0.28;;
49237;SDS011;35069;47.906;1.892;2022-08-19T13:45:01;0.35;;;0.25;;
49237;SDS011;35069;47.906;1.892;2022-08-19T13:47:27;0.30;;;0.30;;
49237;SDS011;35069;47.906;1.892;2022-08-19T13:49:53;1.35;;;0.30;;
49237;SDS011;35069;47.906;1.892;2022-08-19T13:52:18;0.40;;;0.40;;
49237;SDS011;35069;47.906;1.892;2022-08-19T13:54:44;2.28;;;0.50;;
49237;SDS011;35069;47.906;1.892;2022-08-19T13:57:10;0.47;;;0.47;;
49237;SDS011;35069;47.906;1.892;2022-08-19T13:59:35;0.20;;;0.20;;
49237;SDS011;35069;47.906;1.892;2022-08-19T14:02:01;1.17;;;0.32;;
49237;SDS011;35069;47.906;1.892;2022-08-19T14:04:27;0.47;;;0.45;;
49237;SDS011;35069;47.906;1.892;2022-08-19T14:06:52;8.55;;;0.93;;
49237;SDS011;35069;47.906;1.892;2022-08-19T14:09:18;1.67;;;0.68;;
49237;SDS011;35069;47.906;1.892;2022-08-19T14:11:43;0.60;;;0.60;;
49237;SDS011;35069;47.906;1.892;2022-08-19T14:14:11;0.57;;;0.50;;
49237;SDS011;35069;47.906;1.892;2022-08-19T14:16:37;0.47;;;0.47;;
49237;SDS011;35069;47.906;1.892;2022-08-19T14:19:03;1.08;;;0.30;;
49237;SDS011;35069;47.906;1.892;2022-08-19T14:21:28;2.83;;;0.40;;
49237;SDS011;35069;47.906;1.892;2022-08-19T14:23:54;0.60;;;0.60;;
49237;SDS011;35069;47.906;1.892;2022-08-19T14:26:20;0.35;;;0.35;;
49237;SDS011;35069;47.906;1.892;2022-08-19T14:28:46;0.30;;;0.30;;
49237;SDS011;35069;47.906;1.892;2022-08-19T14:31:13;1.35;;;0.45;;
49237;SDS011;35069;47.906;1.892;2022-08-19T14:33:48;0.80;;;0.40;;
49237;SDS011;35069;47.906;1.892;2022-08-19T14:36:15;2.65;;;1.13;;
49237;SDS011;35069;47.906;1.892;2022-08-19T14:38:42;0.65;;;0.40;;
49237;SDS011;35069;47.906;1.892;2022-08-19T14:41:08;0.32;;;0.32;;
49237;SDS011;35069;47.906;1.892;2022-08-19T14:43:37;0.45;;;0.45;;
49237;SDS011;35069;47.906;1.892;2022-08-19T14:46:03;1.00;;;0.30;;
49237;SDS011;35069;47.906;1.892;2022-08-19T14:48:29;3.35;;;0.70;;
49237;SDS011;35069;47.906;1.892;2022-08-19T14:50:54;0.30;;;0.30;;
49237;SDS011;35069;47.906;1.892;2022-08-19T14:53:20;0.25;;;0.25;;
49237;SDS011;35069;47.906;1.892;2022-08-19T14:55:46;1.95;;;0.40;;
49237;SDS011;35069;47.906;1.892;2022-08-19T14:58:12;1.98;;;0.45;;
49237;SDS011;35069;47.906;1.892;2022-08-19T15:00:38;0.85;;;0.50;;
49237;SDS011;35069;47.906;1.892;2022-08-19T15:03:04;0.52;;;0.45;;
49237;SDS011;35069;47.906;1.892;2022-08-19T15:05:29;0.35;;;0.35;;